createdAt,value
2023-03-16T00:02:12.954Z,2.10
2023-03-16T00:04:40.953Z,2.10
2023-03-16T00:07:10.502Z,2.20
2023-03-16T00:09:41.561Z,2.20
2023-03-16T00:12:15.900Z,2.20
2023-03-16T00:14:45.906Z,2.20
2023-03-16T00:17:18.960Z,2.20
2023-03-16T00:19:48.037Z,2.20
2023-03-16T00:22:16.509Z,2.20
2023-03-16T00:24:44.517Z,2.20
2023-03-16T00:27:14.806Z,2.20
2023-03-16T00:29:47.390Z,2.20
2023-03-16T00:32:16.856Z,2.20
2023-03-16T00:34:45.368Z,2.20
2023-03-16T00:37:15.352Z,2.20
2023-03-16T00:39:43.828Z,2.20
2023-03-16T00:42:12.777Z,2.20
2023-03-16T00:44:41.757Z,2.20
2023-03-16T00:47:14.328Z,2.30
2023-03-16T00:49:42.953Z,2.30
2023-03-16T00:52:14.606Z,2.30
2023-03-16T00:54:46.603Z,2.30
2023-03-16T00:57:17.510Z,2.30
2023-03-16T00:59:48.549Z,2.30
2023-03-16T01:02:20.000Z,2.30
2023-03-16T01:04:47.992Z,2.30
2023-03-16T01:07:15.979Z,2.40
2023-03-16T01:09:43.967Z,2.40
2023-03-16T01:12:21.392Z,2.40
2023-03-16T01:14:55.360Z,2.30
2023-03-16T01:17:24.658Z,2.30
2023-03-16T01:19:52.616Z,2.30
2023-03-16T01:22:21.462Z,2.30
2023-03-16T01:24:49.425Z,2.30
2023-03-16T01:27:17.430Z,2.30
2023-03-16T01:29:45.408Z,2.30
2023-03-16T01:32:13.607Z,2.20
2023-03-16T01:34:42.916Z,2.20
2023-03-16T01:37:11.392Z,2.20
2023-03-16T01:39:39.398Z,2.20
2023-03-16T01:42:07.513Z,2.20
2023-03-16T01:44:50.965Z,2.10
2023-03-16T01:47:19.147Z,2.10
2023-03-16T01:49:48.504Z,2.10
2023-03-16T01:52:19.520Z,2.10
2023-03-16T01:54:48.393Z,2.10
2023-03-16T01:57:18.035Z,2.10
2023-03-16T01:59:49.578Z,2.10
2023-03-16T02:02:20.613Z,2.10
2023-03-16T02:04:52.142Z,2.00
2023-03-16T02:07:21.815Z,2.00
2023-03-16T02:09:51.703Z,2.00
2023-03-16T02:12:19.911Z,2.00
2023-03-16T02:14:49.361Z,2.00
2023-03-16T02:17:18.714Z,2.00
2023-03-16T02:19:52.602Z,2.00
2023-03-16T02:22:24.916Z,2.00
2023-03-16T02:24:53.079Z,2.00
2023-03-16T02:27:24.404Z,2.00
2023-03-16T02:30:01.183Z,2.00
2023-03-16T02:32:30.529Z,2.00
2023-03-16T02:35:03.902Z,2.00
2023-03-16T02:37:33.825Z,1.90
2023-03-16T02:40:02.071Z,1.90
2023-03-16T02:42:30.204Z,1.90
2023-03-16T02:45:02.582Z,1.90
2023-03-16T02:47:35.188Z,1.90
2023-03-16T02:50:08.452Z,1.90
2023-03-16T02:52:41.360Z,1.90
2023-03-16T02:55:09.783Z,1.90
2023-03-16T02:57:37.959Z,1.90
2023-03-16T03:00:13.214Z,1.90
2023-03-16T03:02:41.175Z,1.90
2023-03-16T03:05:09.254Z,1.90
2023-03-16T03:07:37.256Z,1.90
2023-03-16T03:10:06.039Z,1.80
2023-03-16T03:12:34.214Z,1.80
2023-03-16T03:15:02.178Z,1.80
2023-03-16T03:17:39.331Z,1.80
2023-03-16T03:20:16.688Z,1.80
2023-03-16T03:22:46.001Z,1.80
2023-03-16T03:25:15.125Z,1.70
2023-03-16T03:27:43.595Z,1.70
2023-03-16T03:30:12.829Z,1.70
2023-03-16T03:32:42.442Z,1.60
2023-03-16T03:35:12.425Z,1.60
2023-03-16T03:37:45.692Z,1.60
2023-03-16T03:40:14.641Z,1.50
2023-03-16T03:42:43.129Z,1.50
2023-03-16T03:45:12.852Z,1.50
2023-03-16T03:47:42.825Z,1.40
2023-03-16T03:50:11.622Z,1.50
2023-03-16T03:52:39.639Z,1.50
2023-03-16T03:55:07.984Z,1.50
2023-03-16T03:57:35.980Z,1.50
2023-03-16T04:00:07.899Z,1.50
2023-03-16T04:02:36.089Z,1.50
2023-03-16T04:05:11.602Z,1.50
2023-03-16T04:07:39.686Z,1.50
2023-03-16T04:10:08.299Z,1.50
2023-03-16T04:12:36.478Z,1.50
2023-03-16T04:15:04.971Z,1.50
2023-03-16T04:17:34.397Z,1.60
2023-03-16T04:20:14.448Z,1.60
2023-03-16T04:22:42.703Z,1.60
2023-03-16T04:25:11.567Z,1.60
2023-03-16T04:27:39.636Z,1.60
2023-03-16T04:30:08.881Z,1.60
2023-03-16T04:32:37.020Z,1.60
2023-03-16T04:35:09.799Z,1.60
2023-03-16T04:37:37.760Z,1.60
2023-03-16T04:40:11.887Z,1.60
2023-03-16T04:42:39.961Z,1.60
2023-03-16T04:45:08.621Z,1.60
2023-03-16T04:47:39.559Z,1.60
2023-03-16T04:50:10.468Z,1.60
2023-03-16T04:52:38.471Z,1.70
2023-03-16T04:55:06.996Z,2.40
2023-03-16T04:57:35.127Z,1.70
2023-03-16T05:00:11.053Z,1.70
2023-03-16T05:02:41.566Z,1.70
2023-03-16T05:05:11.546Z,1.80
2023-03-16T05:07:42.553Z,1.80
2023-03-16T05:10:11.269Z,1.80
2023-03-16T05:12:39.234Z,1.80
2023-03-16T05:15:08.055Z,1.80
2023-03-16T05:17:36.413Z,1.80
2023-03-16T05:20:15.832Z,1.90
2023-03-16T05:22:48.161Z,1.90
2023-03-16T05:25:16.689Z,1.90
2023-03-16T05:27:44.880Z,1.90
2023-03-16T05:30:22.053Z,1.90
2023-03-16T05:32:56.905Z,2.00
2023-03-16T05:35:26.617Z,2.00
2023-03-16T05:37:55.977Z,2.00
2023-03-16T05:40:24.210Z,2.00
2023-03-16T05:42:56.793Z,2.10
2023-03-16T05:45:25.207Z,2.10
2023-03-16T05:47:53.380Z,2.10
2023-03-16T05:50:21.613Z,2.10
2023-03-16T05:52:49.576Z,2.10
2023-03-16T05:55:19.245Z,2.10
2023-03-16T05:57:47.216Z,2.20
2023-03-16T06:00:16.775Z,2.20
2023-03-16T06:02:45.049Z,2.20
2023-03-16T06:05:13.089Z,2.20
2023-03-16T06:07:45.033Z,2.20
2023-03-16T06:10:14.007Z,2.20
2023-03-16T06:12:43.373Z,2.20
2023-03-16T06:15:12.315Z,2.30
2023-03-16T06:17:41.469Z,2.30
2023-03-16T06:20:11.420Z,2.30
2023-03-16T06:22:39.824Z,2.40
2023-03-16T06:25:09.913Z,2.40
2023-03-16T06:27:38.104Z,2.40
2023-03-16T06:30:08.732Z,2.50
2023-03-16T06:32:37.963Z,2.40
2023-03-16T06:35:06.388Z,2.50
2023-03-16T06:37:34.465Z,2.60
2023-03-16T06:40:02.426Z,2.60
2023-03-16T06:42:30.613Z,2.60
2023-03-16T06:44:58.678Z,2.70
2023-03-16T06:47:28.174Z,2.70
2023-03-16T06:49:56.281Z,2.70
2023-03-16T06:52:24.305Z,2.70
2023-03-16T06:54:52.529Z,2.80
2023-03-16T06:57:20.496Z,2.80
2023-03-16T06:59:48.516Z,2.80
2023-03-16T07:02:17.075Z,2.90
2023-03-16T07:04:46.483Z,2.90
2023-03-16T07:07:14.506Z,2.90
2023-03-16T07:09:43.070Z,3.00
2023-03-16T07:12:11.568Z,3.00
2023-03-16T07:14:39.554Z,3.10
2023-03-16T07:17:07.605Z,3.10
2023-03-16T07:19:35.597Z,3.10
2023-03-16T07:22:04.924Z,3.10
2023-03-16T07:24:32.915Z,3.20
2023-03-16T07:27:01.887Z,3.20
2023-03-16T07:29:29.855Z,3.30
2023-03-16T07:31:57.962Z,3.30
2023-03-16T07:34:25.941Z,3.40
2023-03-16T07:36:53.961Z,3.40
2023-03-16T07:39:23.901Z,3.50
2023-03-16T07:41:52.057Z,3.50
2023-03-16T07:44:20.011Z,3.60
2023-03-16T07:46:48.018Z,3.60
2023-03-16T07:49:16.814Z,3.70
2023-03-16T07:51:44.793Z,3.70
2023-03-16T07:54:14.222Z,3.70
2023-03-16T07:56:49.365Z,3.80
2023-03-16T07:59:20.411Z,3.80
2023-03-16T08:01:48.901Z,3.90
2023-03-16T08:04:16.841Z,3.90
2023-03-16T08:06:45.427Z,4.00
2023-03-16T08:09:13.389Z,4.10
2023-03-16T08:11:41.571Z,4.10
2023-03-16T08:14:10.961Z,4.10
2023-03-16T08:16:38.906Z,4.20
2023-03-16T08:19:07.141Z,4.20
2023-03-16T08:21:48.756Z,3.90
2023-03-16T08:24:24.193Z,4.30
2023-03-16T08:26:52.158Z,4.40
2023-03-16T08:29:21.500Z,4.40
2023-03-16T08:31:49.518Z,4.40
2023-03-16T08:34:18.012Z,4.50
2023-03-16T08:36:46.092Z,4.50
2023-03-16T08:39:15.015Z,4.50
2023-03-16T08:41:43.189Z,4.60
2023-03-16T08:44:11.296Z,4.70
2023-03-16T08:46:42.354Z,4.60
2023-03-16T08:49:10.901Z,4.70
2023-03-16T08:51:39.273Z,4.70
2023-03-16T08:54:07.424Z,4.80
2023-03-16T08:56:35.359Z,4.90
2023-03-16T08:59:03.630Z,4.90
2023-03-16T09:01:32.021Z,4.90
2023-03-16T09:04:02.332Z,5.00
2023-03-16T09:06:33.548Z,5.00
2023-03-16T09:09:01.567Z,5.10
2023-03-16T09:11:30.685Z,5.20
2023-03-16T09:13:58.985Z,5.20
2023-03-16T09:16:27.193Z,5.20
2023-03-16T09:18:55.892Z,5.30
2023-03-16T09:21:25.956Z,5.30
2023-03-16T09:23:54.457Z,5.40
2023-03-16T09:26:22.715Z,5.40
2023-03-16T09:28:50.932Z,5.40
2023-03-16T09:31:19.910Z,5.50
2023-03-16T09:33:48.715Z,5.50
2023-03-16T09:36:17.702Z,5.50
2023-03-16T09:38:47.060Z,5.60
2023-03-16T09:41:24.705Z,5.60
2023-03-16T09:43:57.848Z,5.60
2023-03-16T09:46:27.291Z,5.70
2023-03-16T09:48:55.815Z,5.70
2023-03-16T09:51:31.028Z,5.80
2023-03-16T09:54:02.628Z,5.80
2023-03-16T09:56:50.295Z,5.90
2023-03-16T09:59:20.169Z,6.00
2023-03-16T10:02:11.585Z,6.10
2023-03-16T10:04:43.845Z,6.10
2023-03-16T10:07:21.246Z,6.20
2023-03-16T10:09:55.713Z,6.30
2023-03-16T10:12:44.307Z,6.40
2023-03-16T10:15:14.667Z,6.50
2023-03-16T10:17:44.751Z,6.50
2023-03-16T10:20:17.476Z,6.60
2023-03-16T10:22:46.436Z,6.60
2023-03-16T10:25:20.428Z,6.70
2023-03-16T10:27:48.749Z,6.70
2023-03-16T10:30:24.637Z,6.80
2023-03-16T10:32:52.839Z,6.90
2023-03-16T10:35:31.630Z,6.90
2023-03-16T10:38:00.089Z,7.00
2023-03-16T10:40:32.149Z,7.00
2023-03-16T10:43:07.721Z,7.10
2023-03-16T10:45:36.582Z,7.20
2023-03-16T10:48:08.514Z,7.30
2023-03-16T10:50:38.158Z,7.30
2023-03-16T10:53:06.161Z,7.40
2023-03-16T10:55:42.235Z,7.40
2023-03-16T10:58:10.606Z,7.50
2023-03-16T11:00:39.110Z,7.60
2023-03-16T11:03:15.101Z,7.70
2023-03-16T11:05:45.896Z,7.80
2023-03-16T11:08:14.966Z,7.90
2023-03-16T11:10:55.641Z,7.90
2023-03-16T11:13:33.292Z,8.10
2023-03-16T11:16:02.824Z,8.20
2023-03-16T11:18:31.494Z,8.40
2023-03-16T11:21:01.225Z,8.50
2023-03-16T11:23:31.222Z,8.60
2023-03-16T11:26:03.765Z,8.60
2023-03-16T11:28:35.430Z,8.70
2023-03-16T11:31:08.349Z,8.70
2023-03-16T11:33:36.629Z,8.70
2023-03-16T11:36:13.937Z,8.80
2023-03-16T11:38:44.683Z,8.80
2023-03-16T11:41:15.356Z,8.80
2023-03-16T11:43:52.819Z,8.90
2023-03-16T11:46:23.396Z,8.90
2023-03-16T11:48:55.307Z,8.90
2023-03-16T11:51:30.722Z,8.80
2023-03-16T11:54:02.669Z,8.80
2023-03-16T11:56:34.097Z,8.80
2023-03-16T11:59:12.762Z,8.80
2023-03-16T12:01:59.865Z,8.80
2023-03-16T12:04:38.355Z,8.70
2023-03-16T12:07:15.157Z,8.70
2023-03-16T12:09:59.841Z,8.80
2023-03-16T12:12:37.584Z,8.80
2023-03-16T12:15:21.387Z,8.80
2023-03-16T12:17:51.308Z,8.80
2023-03-16T12:20:21.282Z,8.80
2023-03-16T12:22:51.070Z,8.80
2023-03-16T12:25:24.814Z,8.70
2023-03-16T12:27:55.517Z,8.70
2023-03-16T12:30:30.191Z,8.70
2023-03-16T12:33:02.343Z,8.60
2023-03-16T12:35:34.820Z,8.60
2023-03-16T12:38:12.972Z,8.50
2023-03-16T12:40:44.670Z,8.60
2023-03-16T12:43:30.658Z,8.60
2023-03-16T12:46:05.568Z,8.60
2023-03-16T12:48:34.979Z,8.50
2023-03-16T12:51:03.883Z,8.50
2023-03-16T12:53:47.762Z,8.40
2023-03-16T12:56:17.610Z,8.40
2023-03-16T12:58:47.401Z,8.40
2023-03-16T13:01:18.495Z,8.40
2023-03-16T13:03:49.528Z,8.40
2023-03-16T13:06:19.238Z,8.30
2023-03-16T13:08:49.321Z,8.30
2023-03-16T13:11:17.651Z,8.30
2023-03-16T13:13:49.612Z,8.20
2023-03-16T13:16:27.321Z,8.20
2023-03-16T13:18:55.931Z,8.10
2023-03-16T13:21:35.011Z,8.10
2023-03-16T13:24:13.924Z,8.00
2023-03-16T13:26:43.289Z,8.00
2023-03-16T13:29:19.311Z,7.90
2023-03-16T13:31:48.768Z,7.80
2023-03-16T13:34:20.655Z,7.80
2023-03-16T13:36:54.161Z,7.70
2023-03-16T13:39:22.699Z,7.60
2023-03-16T13:41:59.568Z,7.60
2023-03-16T13:44:28.209Z,7.60
2023-03-16T13:46:57.580Z,7.60
2023-03-16T13:49:25.511Z,7.60
2023-03-16T13:51:53.792Z,7.60
2023-03-16T13:54:25.970Z,7.60
2023-03-16T13:56:54.135Z,7.70
2023-03-16T13:59:22.881Z,7.70
2023-03-16T14:01:57.952Z,7.70
2023-03-16T14:04:29.302Z,7.80
2023-03-16T14:06:58.043Z,7.80
2023-03-16T14:09:28.665Z,7.90
2023-03-16T14:11:57.780Z,7.90
2023-03-16T14:14:27.042Z,8.00
2023-03-16T14:17:00.330Z,8.00
2023-03-16T14:19:35.992Z,8.10
2023-03-16T14:22:05.285Z,8.20
2023-03-16T14:24:35.359Z,8.20
2023-03-16T14:27:11.128Z,8.30
2023-03-16T14:29:42.715Z,8.40
2023-03-16T14:32:21.872Z,8.50
2023-03-16T14:34:51.969Z,8.60
2023-03-16T14:37:20.126Z,8.60
2023-03-16T14:39:59.208Z,8.80
2023-03-16T14:42:33.691Z,9.00
2023-03-16T14:45:02.443Z,9.20
2023-03-16T14:47:32.066Z,9.30
2023-03-16T14:50:04.491Z,9.50
2023-03-16T14:52:32.629Z,9.80
2023-03-16T14:55:03.359Z,9.80
2023-03-16T14:57:33.025Z,9.80
2023-03-16T15:00:01.263Z,9.80
2023-03-16T15:02:30.820Z,9.80
2023-03-16T15:04:59.711Z,9.70
2023-03-16T15:07:30.850Z,9.70
2023-03-16T15:10:02.056Z,9.80
2023-03-16T15:12:37.824Z,9.90
2023-03-16T15:15:18.741Z,10.00
2023-03-16T15:17:50.276Z,10.20
2023-03-16T15:20:19.748Z,10.20
2023-03-16T15:22:49.425Z,10.30
2023-03-16T15:25:22.140Z,10.30
2023-03-16T15:27:50.674Z,10.30
2023-03-16T15:30:19.532Z,10.40
2023-03-16T15:32:47.652Z,10.30
2023-03-16T15:35:15.959Z,10.20
2023-03-16T15:37:43.976Z,10.00
2023-03-16T15:40:18.545Z,9.80
2023-03-16T15:42:48.029Z,9.70
2023-03-16T15:45:18.626Z,9.70
2023-03-16T15:47:46.863Z,9.60
2023-03-16T15:50:16.408Z,9.50
2023-03-16T15:52:46.213Z,9.50
2023-03-16T15:55:21.776Z,9.40
2023-03-16T15:57:51.310Z,9.30
2023-03-16T16:00:29.096Z,9.20
2023-03-16T16:02:57.760Z,9.20
2023-03-16T16:05:28.889Z,9.10
2023-03-16T16:07:57.081Z,9.10
2023-03-16T16:10:27.492Z,9.10
2023-03-16T16:12:56.882Z,9.00
2023-03-16T16:15:26.743Z,9.00
2023-03-16T16:18:19.184Z,9.00
2023-03-16T16:20:43.002Z,8.90
2023-03-16T16:23:11.048Z,8.90
2023-03-16T16:25:41.500Z,8.80
2023-03-16T16:28:14.761Z,8.80
2023-03-16T16:30:42.804Z,8.80
2023-03-16T16:33:21.471Z,8.80
2023-03-16T16:35:49.601Z,8.70
2023-03-16T16:38:17.713Z,8.80
2023-03-16T16:40:47.624Z,8.80
2023-03-16T16:43:36.144Z,8.80
2023-03-16T16:46:06.176Z,8.80
2023-03-16T16:48:36.652Z,8.80
2023-03-16T16:51:05.011Z,8.80
2023-03-16T16:53:33.056Z,8.80
2023-03-16T16:56:02.974Z,8.90
2023-03-16T16:58:31.115Z,8.90
2023-03-16T17:00:59.501Z,9.00
2023-03-16T17:03:28.678Z,9.00
2023-03-16T17:05:57.904Z,9.00
2023-03-16T17:08:26.164Z,9.00
2023-03-16T17:10:55.079Z,8.90
2023-03-16T17:13:27.590Z,8.90
2023-03-16T17:15:55.779Z,8.90
2023-03-16T17:18:27.137Z,8.80
2023-03-16T17:20:55.212Z,8.80
2023-03-16T17:23:33.255Z,8.80
2023-03-16T17:26:02.920Z,8.90
2023-03-16T17:28:35.878Z,8.70
2023-03-16T17:31:04.286Z,8.60
2023-03-16T17:33:32.330Z,8.60
2023-03-16T17:36:01.947Z,8.50
2023-03-16T17:38:33.003Z,8.50
2023-03-16T17:41:04.244Z,8.40
2023-03-16T17:43:33.594Z,8.40
2023-03-16T17:46:02.904Z,8.30
2023-03-16T17:48:30.869Z,8.30
2023-03-16T17:50:58.824Z,8.20
2023-03-16T17:53:26.879Z,8.20
2023-03-16T17:55:55.569Z,8.10
2023-03-16T17:58:26.775Z,8.10
2023-03-16T18:00:56.309Z,8.00
2023-03-16T18:03:25.832Z,7.90
2023-03-16T18:05:53.879Z,7.90
2023-03-16T18:08:26.126Z,7.90
2023-03-16T18:10:55.952Z,7.80
2023-03-16T18:13:26.888Z,7.70
2023-03-16T18:15:57.358Z,7.70
2023-03-16T18:18:26.624Z,7.70
2023-03-16T18:20:56.853Z,7.60
2023-03-16T18:23:25.777Z,7.60
2023-03-16T18:25:55.083Z,7.60
2023-03-16T18:28:23.833Z,7.50
2023-03-16T18:30:53.574Z,7.50
2023-03-16T18:33:27.554Z,7.50
2023-03-16T18:35:56.927Z,7.50
2023-03-16T18:38:28.991Z,7.40
2023-03-16T18:40:57.308Z,7.40
2023-03-16T18:43:27.253Z,7.40
2023-03-16T18:45:58.416Z,7.40
2023-03-16T18:48:29.326Z,7.30
2023-03-16T18:50:57.264Z,7.30
2023-03-16T18:53:25.446Z,7.30
2023-03-16T18:55:55.630Z,7.30
2023-03-16T18:58:27.837Z,7.30
2023-03-16T19:00:56.880Z,7.20
2023-03-16T19:03:26.439Z,7.20
2023-03-16T19:05:57.081Z,7.20
2023-03-16T19:08:25.684Z,7.20
2023-03-16T19:10:56.435Z,7.20
2023-03-16T19:13:26.054Z,7.10
2023-03-16T19:15:55.014Z,7.10
2023-03-16T19:18:25.964Z,7.10
2023-03-16T19:20:56.037Z,7.10
2023-03-16T19:23:26.174Z,7.10
2023-03-16T19:25:55.913Z,7.10
2023-03-16T19:28:26.460Z,7.10
2023-03-16T19:30:54.639Z,7.10
2023-03-16T19:33:23.333Z,7.10
2023-03-16T19:35:52.770Z,7.10
2023-03-16T19:38:22.868Z,7.10
2023-03-16T19:40:53.533Z,7.10
2023-03-16T19:43:22.320Z,7.10
2023-03-16T19:45:50.862Z,7.10
2023-03-16T19:48:21.154Z,7.10
2023-03-16T19:50:52.060Z,7.00
2023-03-16T19:53:21.565Z,7.10
2023-03-16T19:55:53.279Z,7.10
2023-03-16T19:58:24.625Z,7.10
2023-03-16T20:00:53.363Z,7.10
2023-03-16T20:03:24.243Z,7.10
2023-03-16T20:05:52.288Z,7.10
2023-03-16T20:08:22.282Z,7.10
2023-03-16T20:10:52.358Z,7.10
2023-03-16T20:13:20.568Z,7.20
2023-03-16T20:15:48.498Z,7.20
2023-03-16T20:18:18.341Z,7.20
2023-03-16T20:20:46.700Z,7.20
2023-03-16T20:23:18.673Z,7.20
2023-03-16T20:25:47.700Z,7.20
2023-03-16T20:28:20.840Z,7.20
2023-03-16T20:30:49.139Z,7.20
2023-03-16T20:33:18.799Z,7.20
2023-03-16T20:35:46.965Z,7.20
2023-03-16T20:38:15.212Z,7.20
2023-03-16T20:40:43.738Z,7.20
2023-03-16T20:43:22.429Z,7.20
2023-03-16T20:45:50.853Z,7.20
2023-03-16T20:48:18.877Z,7.20
2023-03-16T20:50:47.398Z,7.20
2023-03-16T20:53:15.359Z,7.20
2023-03-16T20:55:43.780Z,7.20
2023-03-16T20:58:17.834Z,7.20
2023-03-16T21:00:49.067Z,7.20
2023-03-16T21:03:18.578Z,7.20
2023-03-16T21:05:46.700Z,7.20
2023-03-16T21:08:14.992Z,7.20
2023-03-16T21:10:43.628Z,7.20
2023-03-16T21:13:17.947Z,7.10
2023-03-16T21:15:51.089Z,7.10
2023-03-16T21:18:20.328Z,7.10
2023-03-16T21:20:49.363Z,7.10
2023-03-16T21:23:18.328Z,7.10
2023-03-16T21:25:48.309Z,7.10
2023-03-16T21:28:17.138Z,7.10
2023-03-16T21:30:46.451Z,7.00
2023-03-16T21:33:20.072Z,7.00
2023-03-16T21:35:48.179Z,7.00
2023-03-16T21:38:16.973Z,7.00
2023-03-16T21:40:45.349Z,7.00
2023-03-16T21:43:13.583Z,7.00
2023-03-16T21:45:42.087Z,7.00
2023-03-16T21:48:15.546Z,7.00
2023-03-16T21:50:45.481Z,6.90
2023-03-16T21:53:22.677Z,6.90
2023-03-16T21:55:50.979Z,6.90
2023-03-16T21:58:19.358Z,7.10
2023-03-16T22:00:48.209Z,6.90
2023-03-16T22:03:23.221Z,6.90
2023-03-16T22:05:53.318Z,6.90
2023-03-16T22:08:22.353Z,6.90
2023-03-16T22:10:50.722Z,6.90
2023-03-16T22:13:20.273Z,6.90
2023-03-16T22:15:49.493Z,6.90
2023-03-16T22:18:28.151Z,6.90
2023-03-16T22:20:58.178Z,6.80
2023-03-16T22:23:30.935Z,6.80
2023-03-16T22:25:59.473Z,6.80
2023-03-16T22:28:27.774Z,6.80
2023-03-16T22:30:57.549Z,6.80
2023-03-16T22:33:29.850Z,6.80
2023-03-16T22:36:02.252Z,6.80
2023-03-16T22:38:30.422Z,6.80
2023-03-16T22:40:58.461Z,6.80
2023-03-16T22:43:30.728Z,6.80
2023-03-16T22:45:59.171Z,6.90
2023-03-16T22:48:31.151Z,6.80
2023-03-16T22:51:02.404Z,6.80
2023-03-16T22:53:33.779Z,6.80
2023-03-16T22:56:01.865Z,6.80
2023-03-16T22:58:32.760Z,6.80
2023-03-16T23:01:02.084Z,6.80
2023-03-16T23:03:30.289Z,6.80
2023-03-16T23:05:58.803Z,6.80
2023-03-16T23:08:34.379Z,6.80
2023-03-16T23:11:04.594Z,6.80
2023-03-16T23:13:32.529Z,6.80
2023-03-16T23:16:02.221Z,6.80
2023-03-16T23:18:31.872Z,6.80
2023-03-16T23:21:01.735Z,6.80
2023-03-16T23:23:34.180Z,6.80
2023-03-16T23:26:04.375Z,6.80
2023-03-16T23:28:33.852Z,6.80
2023-03-16T23:31:01.837Z,6.70
2023-03-16T23:33:30.149Z,6.70
2023-03-16T23:36:00.074Z,6.80
2023-03-16T23:38:28.106Z,6.70
2023-03-16T23:40:57.444Z,6.70
2023-03-16T23:43:25.716Z,6.70
2023-03-16T23:45:53.716Z,6.70
2023-03-16T23:48:22.316Z,6.70
2023-03-16T23:50:51.981Z,6.70
2023-03-16T23:53:20.165Z,6.70
2023-03-16T23:55:49.514Z,6.70
2023-03-16T23:58:21.418Z,6.70
